sensor_id;sensor_type;location;lat;lon;timestamp;temperature;humidity
52643;DHT22;38531;53.296;6.614;2022-08-01T00:00:15;18.00;99.90
52643;DHT22;38531;53.296;6.614;2022-08-01T00:03:07;18.10;99.90
52643;DHT22;38531;53.296;6.614;2022-08-01T00:05:35;18.10;99.90
52643;DHT22;38531;53.296;6.614;2022-08-01T00:08:34;18.10;99.90
52643;DHT22;38531;53.296;6.614;2022-08-01T00:14:51;18.30;99.90
52643;DHT22;38531;53.296;6.614;2022-08-01T00:17:55;18.10;99.90
52643;DHT22;38531;53.296;6.614;2022-08-01T00:20:50;18.10;99.90
52643;DHT22;38531;53.296;6.614;2022-08-01T00:23:33;18.00;99.90
52643;DHT22;38531;53.296;6.614;2022-08-01T00:26:32;18.10;99.90
52643;DHT22;38531;53.296;6.614;2022-08-01T00:32:43;18.00;99.90
52643;DHT22;38531;53.296;6.614;2022-08-01T00:35:09;18.00;99.90
52643;DHT22;38531;53.296;6.614;2022-08-01T00:37:38;18.00;99.90
52643;DHT22;38531;53.296;6.614;2022-08-01T00:40:11;18.00;99.90
52643;DHT22;38531;53.296;6.614;2022-08-01T00:42:39;18.00;99.90
52643;DHT22;38531;53.296;6.614;2022-08-01T00:45:10;18.00;99.90
52643;DHT22;38531;53.296;6.614;2022-08-01T00:47:39;18.00;99.90
52643;DHT22;38531;53.296;6.614;2022-08-01T00:50:05;18.00;99.90
52643;DHT22;38531;53.296;6.614;2022-08-01T00:52:35;17.90;99.90
52643;DHT22;38531;53.296;6.614;2022-08-01T00:55:01;17.90;99.90
52643;DHT22;38531;53.296;6.614;2022-08-01T00:57:32;17.90;99.90
52643;DHT22;38531;53.296;6.614;2022-08-01T01:00:02;17.90;99.90
52643;DHT22;38531;53.296;6.614;2022-08-01T01:02:30;17.90;99.90
52643;DHT22;38531;53.296;6.614;2022-08-01T01:05:08;17.90;99.90
52643;DHT22;38531;53.296;6.614;2022-08-01T01:13:12;17.80;99.90
52643;DHT22;38531;53.296;6.614;2022-08-01T01:15:51;17.80;99.90
52643;DHT22;38531;53.296;6.614;2022-08-01T01:21:00;17.70;99.90
52643;DHT22;38531;53.296;6.614;2022-08-01T01:26:31;17.70;99.90
52643;DHT22;38531;53.296;6.614;2022-08-01T01:31:48;17.70;99.90
52643;DHT22;38531;53.296;6.614;2022-08-01T01:34:18;17.60;99.90
52643;DHT22;38531;53.296;6.614;2022-08-01T01:36:46;17.40;99.90
52643;DHT22;38531;53.296;6.614;2022-08-01T01:39:14;17.50;99.90
52643;DHT22;38531;53.296;6.614;2022-08-01T01:41:42;17.50;99.90
52643;DHT22;38531;53.296;6.614;2022-08-01T01:44:10;17.50;99.90
52643;DHT22;38531;53.296;6.614;2022-08-01T01:46:36;17.60;99.90
52643;DHT22;38531;53.296;6.614;2022-08-01T01:49:03;17.40;99.90
52643;DHT22;38531;53.296;6.614;2022-08-01T01:51:30;17.50;99.90
52643;DHT22;38531;53.296;6.614;2022-08-01T01:53:57;17.60;99.90
52643;DHT22;38531;53.296;6.614;2022-08-01T01:56:24;17.40;99.90
52643;DHT22;38531;53.296;6.614;2022-08-01T01:58:57;17.40;99.90
52643;DHT22;38531;53.296;6.614;2022-08-01T02:01:28;17.40;99.90
52643;DHT22;38531;53.296;6.614;2022-08-01T02:03:55;17.20;99.90
52643;DHT22;38531;53.296;6.614;2022-08-01T02:06:24;17.40;99.90
52643;DHT22;38531;53.296;6.614;2022-08-01T02:08:54;17.40;99.90
52643;DHT22;38531;53.296;6.614;2022-08-01T02:11:22;17.50;99.90
52643;DHT22;38531;53.296;6.614;2022-08-01T02:14:00;17.40;99.90
52643;DHT22;38531;53.296;6.614;2022-08-01T02:16:29;17.40;99.90
52643;DHT22;38531;53.296;6.614;2022-08-01T02:18:55;17.40;99.90
52643;DHT22;38531;53.296;6.614;2022-08-01T02:21:28;17.70;99.90
52643;DHT22;38531;53.296;6.614;2022-08-01T02:24:03;17.40;99.90
52643;DHT22;38531;53.296;6.614;2022-08-01T02:26:32;17.60;99.90
52643;DHT22;38531;53.296;6.614;2022-08-01T02:29:05;17.50;99.90
52643;DHT22;38531;53.296;6.614;2022-08-01T02:31:34;17.40;99.90
52643;DHT22;38531;53.296;6.614;2022-08-01T02:34:09;17.30;99.90
52643;DHT22;38531;53.296;6.614;2022-08-01T02:36:36;17.30;99.90
52643;DHT22;38531;53.296;6.614;2022-08-01T02:39:13;17.30;99.90
52643;DHT22;38531;53.296;6.614;2022-08-01T02:41:45;17.30;99.90
52643;DHT22;38531;53.296;6.614;2022-08-01T02:44:17;17.20;99.90
52643;DHT22;38531;53.296;6.614;2022-08-01T02:46:50;17.20;99.90
52643;DHT22;38531;53.296;6.614;2022-08-01T02:49:18;17.20;99.90
52643;DHT22;38531;53.296;6.614;2022-08-01T02:51:46;17.20;99.90
52643;DHT22;38531;53.296;6.614;2022-08-01T02:54:19;17.10;99.90
52643;DHT22;38531;53.296;6.614;2022-08-01T02:56:47;17.10;99.90
52643;DHT22;38531;53.296;6.614;2022-08-01T02:59:17;17.20;99.90
52643;DHT22;38531;53.296;6.614;2022-08-01T03:01:47;17.10;99.90
52643;DHT22;38531;53.296;6.614;2022-08-01T03:04:14;17.10;99.90
52643;DHT22;38531;53.296;6.614;2022-08-01T03:06:43;17.10;99.90
52643;DHT22;38531;53.296;6.614;2022-08-01T03:09:10;17.00;99.90
52643;DHT22;38531;53.296;6.614;2022-08-01T03:11:38;16.90;99.90
52643;DHT22;38531;53.296;6.614;2022-08-01T03:14:08;16.80;99.90
52643;DHT22;38531;53.296;6.614;2022-08-01T03:16:36;16.80;99.90
52643;DHT22;38531;53.296;6.614;2022-08-01T03:19:03;16.80;99.90
52643;DHT22;38531;53.296;6.614;2022-08-01T03:21:31;16.80;99.90
52643;DHT22;38531;53.296;6.614;2022-08-01T03:23:59;16.80;99.90
52643;DHT22;38531;53.296;6.614;2022-08-01T03:26:31;16.80;99.90
52643;DHT22;38531;53.296;6.614;2022-08-01T03:29:03;16.70;99.90
52643;DHT22;38531;53.296;6.614;2022-08-01T03:31:34;16.80;99.90
52643;DHT22;38531;53.296;6.614;2022-08-01T03:34:00;16.70;99.90
52643;DHT22;38531;53.296;6.614;2022-08-01T03:36:28;16.70;99.90
52643;DHT22;38531;53.296;6.614;2022-08-01T03:38:58;16.50;99.90
52643;DHT22;38531;53.296;6.614;2022-08-01T03:41:30;16.70;99.90
52643;DHT22;38531;53.296;6.614;2022-08-01T03:44:02;16.90;99.90
52643;DHT22;38531;53.296;6.614;2022-08-01T03:46:40;16.60;99.90
52643;DHT22;38531;53.296;6.614;2022-08-01T03:49:11;16.70;99.90
52643;DHT22;38531;53.296;6.614;2022-08-01T03:51:39;16.90;99.90
52643;DHT22;38531;53.296;6.614;2022-08-01T03:54:07;16.50;99.90
52643;DHT22;38531;53.296;6.614;2022-08-01T03:56:34;16.40;99.90
52643;DHT22;38531;53.296;6.614;2022-08-01T03:59:03;16.40;99.90
52643;DHT22;38531;53.296;6.614;2022-08-01T04:01:31;16.40;99.90
52643;DHT22;38531;53.296;6.614;2022-08-01T04:03:59;16.30;99.90
52643;DHT22;38531;53.296;6.614;2022-08-01T04:06:25;16.30;99.90
52643;DHT22;38531;53.296;6.614;2022-08-01T04:08:51;16.30;99.90
52643;DHT22;38531;53.296;6.614;2022-08-01T04:11:27;16.10;99.90
52643;DHT22;38531;53.296;6.614;2022-08-01T04:13:54;16.10;99.90
52643;DHT22;38531;53.296;6.614;2022-08-01T04:16:21;16.10;99.90
52643;DHT22;38531;53.296;6.614;2022-08-01T04:18:48;16.10;99.90
52643;DHT22;38531;53.296;6.614;2022-08-01T04:21:17;16.00;99.90
52643;DHT22;38531;53.296;6.614;2022-08-01T04:23:44;16.00;99.90
52643;DHT22;38531;53.296;6.614;2022-08-01T04:26:12;16.00;99.90
52643;DHT22;38531;53.296;6.614;2022-08-01T04:28:40;16.00;99.90
52643;DHT22;38531;53.296;6.614;2022-08-01T04:31:08;15.90;99.90
52643;DHT22;38531;53.296;6.614;2022-08-01T04:33:40;16.00;99.90
52643;DHT22;38531;53.296;6.614;2022-08-01T04:36:10;16.00;99.90
52643;DHT22;38531;53.296;6.614;2022-08-01T04:38:38;16.00;99.90
52643;DHT22;38531;53.296;6.614;2022-08-01T04:41:07;16.10;99.90
52643;DHT22;38531;53.296;6.614;2022-08-01T04:43:39;16.00;99.90
52643;DHT22;38531;53.296;6.614;2022-08-01T04:46:06;16.10;99.90
52643;DHT22;38531;53.296;6.614;2022-08-01T04:48:33;16.30;99.90
52643;DHT22;38531;53.296;6.614;2022-08-01T04:51:00;16.10;99.90
52643;DHT22;38531;53.296;6.614;2022-08-01T04:53:26;16.30;99.90
52643;DHT22;38531;53.296;6.614;2022-08-01T04:55:53;16.30;99.90
52643;DHT22;38531;53.296;6.614;2022-08-01T04:58:19;16.20;99.90
52643;DHT22;38531;53.296;6.614;2022-08-01T05:00:45;16.20;99.90
52643;DHT22;38531;53.296;6.614;2022-08-01T05:03:11;16.20;99.90
52643;DHT22;38531;53.296;6.614;2022-08-01T05:05:36;16.20;99.90
52643;DHT22;38531;53.296;6.614;2022-08-01T05:08:02;16.40;99.90
52643;DHT22;38531;53.296;6.614;2022-08-01T05:10:28;16.20;99.90
52643;DHT22;38531;53.296;6.614;2022-08-01T05:12:54;16.20;99.90
52643;DHT22;38531;53.296;6.614;2022-08-01T05:15:28;16.20;99.90
52643;DHT22;38531;53.296;6.614;2022-08-01T05:17:56;16.20;99.90
52643;DHT22;38531;53.296;6.614;2022-08-01T05:20:36;16.30;99.90
52643;DHT22;38531;53.296;6.614;2022-08-01T05:23:07;16.30;99.90
52643;DHT22;38531;53.296;6.614;2022-08-01T05:25:36;16.30;99.90
52643;DHT22;38531;53.296;6.614;2022-08-01T05:35:10;16.40;99.90
52643;DHT22;38531;53.296;6.614;2022-08-01T05:37:56;16.60;99.90
52643;DHT22;38531;53.296;6.614;2022-08-01T05:40:37;17.10;99.90
52643;DHT22;38531;53.296;6.614;2022-08-01T05:43:38;16.40;99.90
52643;DHT22;38531;53.296;6.614;2022-08-01T05:46:20;16.50;99.90
52643;DHT22;38531;53.296;6.614;2022-08-01T05:52:57;16.50;99.90
52643;DHT22;38531;53.296;6.614;2022-08-01T05:55:22;16.50;99.90
52643;DHT22;38531;53.296;6.614;2022-08-01T05:57:48;16.60;99.90
52643;DHT22;38531;53.296;6.614;2022-08-01T06:00:17;16.80;99.90
52643;DHT22;38531;53.296;6.614;2022-08-01T06:02:43;16.60;99.90
52643;DHT22;38531;53.296;6.614;2022-08-01T06:05:09;16.70;99.90
52643;DHT22;38531;53.296;6.614;2022-08-01T06:07:36;16.70;99.90
52643;DHT22;38531;53.296;6.614;2022-08-01T06:28:28;16.80;99.90
52643;DHT22;38531;53.296;6.614;2022-08-01T07:26:22;18.10;99.90
52643;DHT22;38531;53.296;6.614;2022-08-01T07:28:48;18.20;99.90
52643;DHT22;38531;53.296;6.614;2022-08-01T07:31:16;18.20;99.90
52643;DHT22;38531;53.296;6.614;2022-08-01T07:33:54;18.10;99.90
52643;DHT22;38531;53.296;6.614;2022-08-01T07:36:28;18.20;99.90
52643;DHT22;38531;53.296;6.614;2022-08-01T07:41:37;18.40;99.90
52643;DHT22;38531;53.296;6.614;2022-08-01T07:48:19;18.70;99.90
52643;DHT22;38531;53.296;6.614;2022-08-01T07:50:51;18.80;99.90
52643;DHT22;38531;53.296;6.614;2022-08-01T07:53:20;18.70;99.90
52643;DHT22;38531;53.296;6.614;2022-08-01T07:55:46;18.60;99.90
52643;DHT22;38531;53.296;6.614;2022-08-01T07:58:16;18.60;99.90
52643;DHT22;38531;53.296;6.614;2022-08-01T08:00:47;18.60;99.90
52643;DHT22;38531;53.296;6.614;2022-08-01T08:03:16;18.70;99.90
52643;DHT22;38531;53.296;6.614;2022-08-01T08:05:44;18.80;99.90
52643;DHT22;38531;53.296;6.614;2022-08-01T08:08:12;18.90;99.90
52643;DHT22;38531;53.296;6.614;2022-08-01T08:10:42;19.10;99.90
52643;DHT22;38531;53.296;6.614;2022-08-01T08:13:08;19.20;99.90
52643;DHT22;38531;53.296;6.614;2022-08-01T08:15:36;19.40;99.90
52643;DHT22;38531;53.296;6.614;2022-08-01T08:18:03;19.50;99.90
52643;DHT22;38531;53.296;6.614;2022-08-01T08:20:32;19.40;99.90
52643;DHT22;38531;53.296;6.614;2022-08-01T08:23:01;19.50;99.90
52643;DHT22;38531;53.296;6.614;2022-08-01T08:25:27;19.60;99.90
52643;DHT22;38531;53.296;6.614;2022-08-01T08:28:01;19.70;99.90
52643;DHT22;38531;53.296;6.614;2022-08-01T08:30:30;19.70;99.90
52643;DHT22;38531;53.296;6.614;2022-08-01T08:32:59;19.60;99.90
52643;DHT22;38531;53.296;6.614;2022-08-01T08:35:27;19.60;99.90
52643;DHT22;38531;53.296;6.614;2022-08-01T08:37:53;19.60;99.90
52643;DHT22;38531;53.296;6.614;2022-08-01T08:40:21;19.70;99.90
52643;DHT22;38531;53.296;6.614;2022-08-01T08:42:50;19.50;99.90
52643;DHT22;38531;53.296;6.614;2022-08-01T08:45:16;19.70;99.90
52643;DHT22;38531;53.296;6.614;2022-08-01T08:47:52;19.60;99.90
52643;DHT22;38531;53.296;6.614;2022-08-01T08:50:23;19.70;99.90
52643;DHT22;38531;53.296;6.614;2022-08-01T08:52:52;20.00;99.90
52643;DHT22;38531;53.296;6.614;2022-08-01T08:55:18;20.10;99.90
52643;DHT22;38531;53.296;6.614;2022-08-01T08:57:50;20.20;99.90
52643;DHT22;38531;53.296;6.614;2022-08-01T09:00:18;20.20;99.90
52643;DHT22;38531;53.296;6.614;2022-08-01T09:02:47;20.10;99.90
52643;DHT22;38531;53.296;6.614;2022-08-01T09:05:15;20.10;99.90
52643;DHT22;38531;53.296;6.614;2022-08-01T09:07:42;20.50;99.90
52643;DHT22;38531;53.296;6.614;2022-08-01T09:10:08;20.20;99.90
52643;DHT22;38531;53.296;6.614;2022-08-01T09:12:36;20.50;99.90
52643;DHT22;38531;53.296;6.614;2022-08-01T09:15:02;20.60;99.90
52643;DHT22;38531;53.296;6.614;2022-08-01T09:17:39;20.80;99.90
52643;DHT22;38531;53.296;6.614;2022-08-01T09:20:05;21.00;99.90
52643;DHT22;38531;53.296;6.614;2022-08-01T09:22:33;21.10;99.90
52643;DHT22;38531;53.296;6.614;2022-08-01T09:25:08;21.10;99.90
52643;DHT22;38531;53.296;6.614;2022-08-01T09:27:41;21.30;99.90
52643;DHT22;38531;53.296;6.614;2022-08-01T09:30:19;21.40;99.90
52643;DHT22;38531;53.296;6.614;2022-08-01T09:33:03;21.40;99.90
52643;DHT22;38531;53.296;6.614;2022-08-01T09:35:31;21.10;99.90
52643;DHT22;38531;53.296;6.614;2022-08-01T09:38:15;21.00;99.90
52643;DHT22;38531;53.296;6.614;2022-08-01T09:40:55;21.20;99.90
52643;DHT22;38531;53.296;6.614;2022-08-01T09:43:23;21.00;99.90
52643;DHT22;38531;53.296;6.614;2022-08-01T09:45:50;21.00;99.90
52643;DHT22;38531;53.296;6.614;2022-08-01T09:48:17;21.10;99.90
52643;DHT22;38531;53.296;6.614;2022-08-01T09:50:47;21.20;99.90
52643;DHT22;38531;53.296;6.614;2022-08-01T09:53:14;21.10;99.90
52643;DHT22;38531;53.296;6.614;2022-08-01T09:55:40;21.10;99.90
52643;DHT22;38531;53.296;6.614;2022-08-01T09:58:07;21.20;99.90
52643;DHT22;38531;53.296;6.614;2022-08-01T10:00:34;21.10;99.90
52643;DHT22;38531;53.296;6.614;2022-08-01T10:03:21;21.10;99.90
52643;DHT22;38531;53.296;6.614;2022-08-01T10:05:48;21.00;99.90
52643;DHT22;38531;53.296;6.614;2022-08-01T10:08:14;21.10;99.90
52643;DHT22;38531;53.296;6.614;2022-08-01T10:10:40;21.20;99.90
52643;DHT22;38531;53.296;6.614;2022-08-01T10:13:06;21.30;99.90
52643;DHT22;38531;53.296;6.614;2022-08-01T10:15:33;21.40;99.90
52643;DHT22;38531;53.296;6.614;2022-08-01T10:18:02;21.50;99.90
52643;DHT22;38531;53.296;6.614;2022-08-01T10:20:31;21.40;99.90
52643;DHT22;38531;53.296;6.614;2022-08-01T10:23:02;21.60;99.90
52643;DHT22;38531;53.296;6.614;2022-08-01T10:25:34;21.50;99.90
52643;DHT22;38531;53.296;6.614;2022-08-01T10:28:05;21.50;99.90
52643;DHT22;38531;53.296;6.614;2022-08-01T10:30:32;21.50;99.90
52643;DHT22;38531;53.296;6.614;2022-08-01T10:32:58;21.60;99.90
52643;DHT22;38531;53.296;6.614;2022-08-01T10:35:24;21.80;98.80
52643;DHT22;38531;53.296;6.614;2022-08-01T10:37:50;21.90;99.90
52643;DHT22;38531;53.296;6.614;2022-08-01T10:40:24;21.90;99.60
52643;DHT22;38531;53.296;6.614;2022-08-01T10:42:51;21.90;98.60
52643;DHT22;38531;53.296;6.614;2022-08-01T10:45:17;21.90;98.60
52643;DHT22;38531;53.296;6.614;2022-08-01T10:50:32;22.00;99.90
52643;DHT22;38531;53.296;6.614;2022-08-01T10:55:57;22.00;98.70
52643;DHT22;38531;53.296;6.614;2022-08-01T10:58:34;22.00;98.70
52643;DHT22;38531;53.296;6.614;2022-08-01T11:01:25;21.90;97.40
52643;DHT22;38531;53.296;6.614;2022-08-01T11:06:36;22.40;99.00
52643;DHT22;38531;53.296;6.614;2022-08-01T11:11:31;21.70;97.00
52643;DHT22;38531;53.296;6.614;2022-08-01T11:14:01;21.70;98.80
52643;DHT22;38531;53.296;6.614;2022-08-01T11:16:28;21.70;98.50
52643;DHT22;38531;53.296;6.614;2022-08-01T11:18:55;21.80;98.10
52643;DHT22;38531;53.296;6.614;2022-08-01T11:21:20;22.00;98.20
52643;DHT22;38531;53.296;6.614;2022-08-01T11:23:50;22.10;98.80
52643;DHT22;38531;53.296;6.614;2022-08-01T11:26:19;22.30;96.00
52643;DHT22;38531;53.296;6.614;2022-08-01T11:29:15;22.30;97.50
52643;DHT22;38531;53.296;6.614;2022-08-01T11:31:41;22.20;97.00
52643;DHT22;38531;53.296;6.614;2022-08-01T11:34:07;22.30;96.10
52643;DHT22;38531;53.296;6.614;2022-08-01T11:36:33;22.40;96.20
52643;DHT22;38531;53.296;6.614;2022-08-01T11:41:33;22.60;95.70
52643;DHT22;38531;53.296;6.614;2022-08-01T11:44:09;22.80;97.70
52643;DHT22;38531;53.296;6.614;2022-08-01T11:46:57;22.80;95.70
52643;DHT22;38531;53.296;6.614;2022-08-01T11:54:40;22.40;96.20
52643;DHT22;38531;53.296;6.614;2022-08-01T11:57:12;22.70;95.90
52643;DHT22;38531;53.296;6.614;2022-08-01T12:02:15;22.90;95.00
52643;DHT22;38531;53.296;6.614;2022-08-01T12:04:53;22.90;93.80
52643;DHT22;38531;53.296;6.614;2022-08-01T12:07:19;22.60;95.50
52643;DHT22;38531;53.296;6.614;2022-08-01T12:09:46;22.80;95.80
52643;DHT22;38531;53.296;6.614;2022-08-01T12:12:15;22.90;94.60
52643;DHT22;38531;53.296;6.614;2022-08-01T12:14:45;23.00;94.90
52643;DHT22;38531;53.296;6.614;2022-08-01T12:17:17;23.20;93.30
52643;DHT22;38531;53.296;6.614;2022-08-01T12:19:46;23.10;94.20
52643;DHT22;38531;53.296;6.614;2022-08-01T12:22:14;22.90;94.90
52643;DHT22;38531;53.296;6.614;2022-08-01T12:24:42;23.10;94.90
52643;DHT22;38531;53.296;6.614;2022-08-01T12:27:09;23.20;94.10
52643;DHT22;38531;53.296;6.614;2022-08-01T12:29:37;23.10;95.40
52643;DHT22;38531;53.296;6.614;2022-08-01T12:32:04;22.90;95.70
52643;DHT22;38531;53.296;6.614;2022-08-01T12:34:30;22.50;93.20
52643;DHT22;38531;53.296;6.614;2022-08-01T12:36:58;23.10;93.70
52643;DHT22;38531;53.296;6.614;2022-08-01T12:39:34;23.20;94.60
52643;DHT22;38531;53.296;6.614;2022-08-01T12:42:06;23.40;94.80
52643;DHT22;38531;53.296;6.614;2022-08-01T12:44:33;23.50;94.00
52643;DHT22;38531;53.296;6.614;2022-08-01T12:47:00;23.30;93.90
52643;DHT22;38531;53.296;6.614;2022-08-01T12:49:26;23.20;93.70
52643;DHT22;38531;53.296;6.614;2022-08-01T12:51:53;22.90;94.10
52643;DHT22;38531;53.296;6.614;2022-08-01T12:54:20;22.80;94.10
52643;DHT22;38531;53.296;6.614;2022-08-01T12:56:45;22.60;94.50
52643;DHT22;38531;53.296;6.614;2022-08-01T12:59:22;22.50;93.80
52643;DHT22;38531;53.296;6.614;2022-08-01T13:01:53;22.40;95.20
52643;DHT22;38531;53.296;6.614;2022-08-01T13:04:21;22.70;94.50
52643;DHT22;38531;53.296;6.614;2022-08-01T13:06:47;23.10;94.60
52643;DHT22;38531;53.296;6.614;2022-08-01T13:09:13;23.10;93.70
52643;DHT22;38531;53.296;6.614;2022-08-01T13:11:40;23.10;91.80
52643;DHT22;38531;53.296;6.614;2022-08-01T13:14:06;23.00;92.30
52643;DHT22;38531;53.296;6.614;2022-08-01T13:16:45;23.30;94.30
52643;DHT22;38531;53.296;6.614;2022-08-01T13:19:11;23.50;93.40
52643;DHT22;38531;53.296;6.614;2022-08-01T13:21:37;23.70;93.40
52643;DHT22;38531;53.296;6.614;2022-08-01T13:24:08;23.90;92.40
52643;DHT22;38531;53.296;6.614;2022-08-01T13:26:59;24.00;91.80
52643;DHT22;38531;53.296;6.614;2022-08-01T13:31:58;24.40;90.50
52643;DHT22;38531;53.296;6.614;2022-08-01T13:34:32;24.20;91.50
52643;DHT22;38531;53.296;6.614;2022-08-01T13:36:58;23.70;91.80
52643;DHT22;38531;53.296;6.614;2022-08-01T13:39:24;23.50;91.40
52643;DHT22;38531;53.296;6.614;2022-08-01T13:42:12;23.00;92.70
52643;DHT22;38531;53.296;6.614;2022-08-01T13:44:38;22.70;92.20
52643;DHT22;38531;53.296;6.614;2022-08-01T13:47:05;22.80;93.00
52643;DHT22;38531;53.296;6.614;2022-08-01T13:49:31;22.90;93.60
52643;DHT22;38531;53.296;6.614;2022-08-01T13:51:58;22.90;92.80
52643;DHT22;38531;53.296;6.614;2022-08-01T13:54:23;23.00;93.00
52643;DHT22;38531;53.296;6.614;2022-08-01T13:56:50;23.30;92.90
52643;DHT22;38531;53.296;6.614;2022-08-01T13:59:16;23.30;91.90
52643;DHT22;38531;53.296;6.614;2022-08-01T14:01:42;23.70;94.70
52643;DHT22;38531;53.296;6.614;2022-08-01T14:04:08;24.10;92.30
52643;DHT22;38531;53.296;6.614;2022-08-01T14:06:34;24.30;93.60
52643;DHT22;38531;53.296;6.614;2022-08-01T14:09:01;24.30;90.70
52643;DHT22;38531;53.296;6.614;2022-08-01T14:11:27;24.50;93.80
52643;DHT22;38531;53.296;6.614;2022-08-01T14:13:53;24.70;92.50
52643;DHT22;38531;53.296;6.614;2022-08-01T14:16:19;24.70;91.50
52643;DHT22;38531;53.296;6.614;2022-08-01T14:18:45;24.50;91.10
52643;DHT22;38531;53.296;6.614;2022-08-01T14:21:11;24.30;92.50
52643;DHT22;38531;53.296;6.614;2022-08-01T14:23:37;24.10;91.40
52643;DHT22;38531;53.296;6.614;2022-08-01T14:26:03;23.80;92.60
52643;DHT22;38531;53.296;6.614;2022-08-01T14:28:31;23.80;91.00
52643;DHT22;38531;53.296;6.614;2022-08-01T14:30:59;23.70;91.90
52643;DHT22;38531;53.296;6.614;2022-08-01T14:33:25;23.60;91.70
52643;DHT22;38531;53.296;6.614;2022-08-01T14:35:52;23.50;93.20
52643;DHT22;38531;53.296;6.614;2022-08-01T14:38:17;23.90;93.40
52643;DHT22;38531;53.296;6.614;2022-08-01T14:40:44;23.90;91.20
52643;DHT22;38531;53.296;6.614;2022-08-01T14:43:13;24.00;92.00
52643;DHT22;38531;53.296;6.614;2022-08-01T14:45:39;24.10;91.20
52643;DHT22;38531;53.296;6.614;2022-08-01T14:48:07;24.30;92.50
52643;DHT22;38531;53.296;6.614;2022-08-01T14:50:33;24.30;90.60
52643;DHT22;38531;53.296;6.614;2022-08-01T14:53:01;24.30;90.90
52643;DHT22;38531;53.296;6.614;2022-08-01T14:55:30;24.20;91.20
52643;DHT22;38531;53.296;6.614;2022-08-01T14:57:55;24.40;90.70
52643;DHT22;38531;53.296;6.614;2022-08-01T15:00:21;24.40;92.00
52643;DHT22;38531;53.296;6.614;2022-08-01T15:02:53;24.30;90.30
52643;DHT22;38531;53.296;6.614;2022-08-01T15:05:19;24.30;90.40
52643;DHT22;38531;53.296;6.614;2022-08-01T15:07:47;24.00;90.20
52643;DHT22;38531;53.296;6.614;2022-08-01T15:10:13;24.00;90.70
52643;DHT22;38531;53.296;6.614;2022-08-01T15:12:41;24.10;90.80
52643;DHT22;38531;53.296;6.614;2022-08-01T15:15:08;24.20;88.90
52643;DHT22;38531;53.296;6.614;2022-08-01T15:17:34;24.20;89.70
52643;DHT22;38531;53.296;6.614;2022-08-01T15:20:03;24.10;88.80
52643;DHT22;38531;53.296;6.614;2022-08-01T15:22:30;24.10;89.20
52643;DHT22;38531;53.296;6.614;2022-08-01T15:24:58;24.50;89.90
52643;DHT22;38531;53.296;6.614;2022-08-01T15:27:25;23.90;90.50
52643;DHT22;38531;53.296;6.614;2022-08-01T15:29:54;23.90;90.70
52643;DHT22;38531;53.296;6.614;2022-08-01T15:32:20;23.80;91.10
52643;DHT22;38531;53.296;6.614;2022-08-01T15:35:07;24.10;90.80
52643;DHT22;38531;53.296;6.614;2022-08-01T15:37:35;23.90;89.40
52643;DHT22;38531;53.296;6.614;2022-08-01T15:40:04;24.00;88.80
52643;DHT22;38531;53.296;6.614;2022-08-01T15:42:32;23.90;88.90
52643;DHT22;38531;53.296;6.614;2022-08-01T15:44:58;24.10;89.40
52643;DHT22;38531;53.296;6.614;2022-08-01T15:47:24;24.40;87.00
52643;DHT22;38531;53.296;6.614;2022-08-01T15:49:52;24.10;88.20
52643;DHT22;38531;53.296;6.614;2022-08-01T15:52:18;24.00;88.50
52643;DHT22;38531;53.296;6.614;2022-08-01T15:54:44;23.70;87.30
52643;DHT22;38531;53.296;6.614;2022-08-01T15:57:10;23.50;89.30
52643;DHT22;38531;53.296;6.614;2022-08-01T15:59:36;23.30;88.50
52643;DHT22;38531;53.296;6.614;2022-08-01T16:02:02;23.50;88.10
52643;DHT22;38531;53.296;6.614;2022-08-01T16:04:28;23.50;88.30
52643;DHT22;38531;53.296;6.614;2022-08-01T16:06:54;23.50;86.30
52643;DHT22;38531;53.296;6.614;2022-08-01T16:09:20;23.70;89.40
52643;DHT22;38531;53.296;6.614;2022-08-01T16:11:46;23.60;90.20
52643;DHT22;38531;53.296;6.614;2022-08-01T16:14:14;23.40;88.70
52643;DHT22;38531;53.296;6.614;2022-08-01T16:16:42;23.10;89.20
52643;DHT22;38531;53.296;6.614;2022-08-01T16:19:08;23.10;90.60
52643;DHT22;38531;53.296;6.614;2022-08-01T16:21:36;22.80;89.30
52643;DHT22;38531;53.296;6.614;2022-08-01T16:24:02;22.70;90.00
52643;DHT22;38531;53.296;6.614;2022-08-01T16:26:28;22.50;90.60
52643;DHT22;38531;53.296;6.614;2022-08-01T16:28:54;22.40;90.50
52643;DHT22;38531;53.296;6.614;2022-08-01T16:31:20;22.30;90.30
52643;DHT22;38531;53.296;6.614;2022-08-01T16:33:46;22.30;90.80
52643;DHT22;38531;53.296;6.614;2022-08-01T16:36:13;22.20;90.50
52643;DHT22;38531;53.296;6.614;2022-08-01T16:38:42;21.80;90.90
52643;DHT22;38531;53.296;6.614;2022-08-01T16:41:08;21.80;90.00
52643;DHT22;38531;53.296;6.614;2022-08-01T16:43:34;21.80;90.50
52643;DHT22;38531;53.296;6.614;2022-08-01T16:46:00;21.90;90.40
52643;DHT22;38531;53.296;6.614;2022-08-01T16:48:26;21.40;90.40
52643;DHT22;38531;53.296;6.614;2022-08-01T16:50:52;21.50;89.30
52643;DHT22;38531;53.296;6.614;2022-08-01T16:53:19;21.50;89.30
52643;DHT22;38531;53.296;6.614;2022-08-01T16:55:45;21.20;89.60
52643;DHT22;38531;53.296;6.614;2022-08-01T16:58:17;20.90;90.40
52643;DHT22;38531;53.296;6.614;2022-08-01T17:00:43;20.70;91.60
52643;DHT22;38531;53.296;6.614;2022-08-01T17:03:11;20.50;92.60
52643;DHT22;38531;53.296;6.614;2022-08-01T17:05:37;20.40;93.20
52643;DHT22;38531;53.296;6.614;2022-08-01T17:08:04;20.30;92.90
52643;DHT22;38531;53.296;6.614;2022-08-01T17:10:31;20.10;92.70
52643;DHT22;38531;53.296;6.614;2022-08-01T17:12:56;20.00;92.80
52643;DHT22;38531;53.296;6.614;2022-08-01T17:15:24;19.80;93.90
52643;DHT22;38531;53.296;6.614;2022-08-01T17:17:51;19.80;93.20
52643;DHT22;38531;53.296;6.614;2022-08-01T17:20:19;19.70;93.20
52643;DHT22;38531;53.296;6.614;2022-08-01T17:22:46;19.70;93.20
52643;DHT22;38531;53.296;6.614;2022-08-01T17:25:11;19.70;94.10
52643;DHT22;38531;53.296;6.614;2022-08-01T17:27:37;19.50;93.60
52643;DHT22;38531;53.296;6.614;2022-08-01T17:30:04;19.80;94.20
52643;DHT22;38531;53.296;6.614;2022-08-01T17:32:30;19.50;93.60
52643;DHT22;38531;53.296;6.614;2022-08-01T17:35:00;19.40;93.80
52643;DHT22;38531;53.296;6.614;2022-08-01T17:37:26;19.30;94.00
52643;DHT22;38531;53.296;6.614;2022-08-01T17:39:51;19.30;94.30
52643;DHT22;38531;53.296;6.614;2022-08-01T17:42:17;19.30;94.40
52643;DHT22;38531;53.296;6.614;2022-08-01T17:44:43;19.10;94.40
52643;DHT22;38531;53.296;6.614;2022-08-01T17:47:09;19.00;94.50
52643;DHT22;38531;53.296;6.614;2022-08-01T17:49:34;18.90;95.40
52643;DHT22;38531;53.296;6.614;2022-08-01T17:52:03;19.00;95.00
52643;DHT22;38531;53.296;6.614;2022-08-01T17:54:31;18.90;94.70
52643;DHT22;38531;53.296;6.614;2022-08-01T17:56:57;18.90;94.80
52643;DHT22;38531;53.296;6.614;2022-08-01T17:59:26;18.90;95.30